createdAt,value
2023-05-01T00:02:06.032Z,100839.59
2023-05-01T00:05:28.893Z,100836.19
2023-05-01T00:08:51.042Z,100839.63
2023-05-01T00:12:13.146Z,100837.91
2023-05-01T00:15:34.939Z,100824.25
2023-05-01T00:18:58.006Z,100837.09
2023-05-01T00:22:20.150Z,100837.94
2023-05-01T00:25:42.536Z,100835.38
2023-05-01T00:29:04.252Z,100838.00
2023-05-01T00:32:25.971Z,100844.84
2023-05-01T00:35:49.350Z,100846.59
2023-05-01T00:39:11.636Z,100846.63
2023-05-01T00:42:36.583Z,100837.19
2023-05-01T00:45:58.267Z,100852.63
2023-05-01T00:49:20.030Z,100835.47
2023-05-01T00:52:43.170Z,100849.19
2023-05-01T00:56:05.648Z,100837.22
2023-05-01T00:59:27.844Z,100843.22
2023-05-01T01:02:50.597Z,100844.09
2023-05-01T01:06:22.725Z,100841.53
2023-05-01T01:10:00.630Z,100843.22
2023-05-01T01:13:30.285Z,100842.41
2023-05-01T01:16:56.329Z,100833.78
2023-05-01T01:20:32.512Z,100831.25
2023-05-01T01:24:27.959Z,100827.84
2023-05-01T01:28:18.323Z,100821.81
2023-05-01T01:31:53.018Z,100821.81
2023-05-01T01:35:21.029Z,100820.97
2023-05-01T01:38:48.251Z,100821.81
2023-05-01T01:42:14.952Z,100821.81
2023-05-01T01:45:41.185Z,100822.72
2023-05-01T01:49:07.765Z,100815.81
2023-05-01T01:52:32.662Z,100820.97
2023-05-01T01:55:57.504Z,100815.84
2023-05-01T01:59:21.332Z,100810.69
2023-05-01T02:02:44.361Z,100816.69
2023-05-01T02:06:08.082Z,100810.72
2023-05-01T02:09:32.175Z,100820.97
2023-05-01T02:12:56.480Z,100826.13
2023-05-01T02:16:20.144Z,100813.28
2023-05-01T02:19:43.613Z,100824.41
2023-05-01T02:23:07.913Z,100823.56
2023-05-01T02:26:32.976Z,100812.41
2023-05-01T02:29:55.112Z,100824.41
2023-05-01T02:33:17.141Z,100820.97
2023-05-01T02:36:38.978Z,100827.00
2023-05-01T02:40:00.881Z,100822.69
2023-05-01T02:43:25.072Z,100816.69
2023-05-01T02:46:49.835Z,100825.28
2023-05-01T02:50:12.323Z,100822.69
2023-05-01T02:53:35.317Z,100820.13
2023-05-01T02:56:58.450Z,100824.41
2023-05-01T03:00:22.615Z,100823.56
2023-05-01T03:03:44.460Z,100826.13
2023-05-01T03:07:00.410Z,100813.25
2023-05-01T03:10:22.502Z,100814.13
2023-05-01T03:13:44.857Z,100809.84
2023-05-01T03:17:08.137Z,100811.56
2023-05-01T03:20:30.120Z,100806.41
2023-05-01T03:23:51.982Z,100806.38
2023-05-01T03:27:13.736Z,100811.50
2023-05-01T03:30:36.424Z,100802.91
2023-05-01T03:33:59.923Z,100796.84
2023-05-01T03:37:21.988Z,100805.31
2023-05-01T03:40:43.742Z,100800.91
2023-05-01T03:44:05.435Z,100787.91
2023-05-01T03:47:27.692Z,100807.47
2023-05-01T03:50:51.066Z,100787.56
2023-05-01T03:54:12.957Z,100791.63
2023-05-01T03:57:35.112Z,100791.41
2023-05-01T04:01:00.884Z,100790.28
2023-05-01T04:04:22.658Z,100791.72
2023-05-01T04:07:45.877Z,100787.94
2023-05-01T04:11:07.744Z,100792.75
2023-05-01T04:14:29.669Z,100795.03
2023-05-01T04:17:51.566Z,100767.41
2023-05-01T04:21:14.698Z,100794.44
2023-05-01T04:24:38.174Z,100790.63
2023-05-01T04:28:00.192Z,100785.19
2023-05-01T04:31:22.151Z,100793.44
2023-05-01T04:34:45.242Z,100798.31
2023-05-01T04:38:07.585Z,100793.75
2023-05-01T04:41:30.735Z,100802.03
2023-05-01T04:44:52.855Z,100800.66
2023-05-01T04:48:14.891Z,100808.03
2023-05-01T04:51:36.669Z,100796.47
2023-05-01T04:54:58.606Z,100796.09
2023-05-01T04:58:21.848Z,100799.25
2023-05-01T05:01:43.733Z,100794.59
2023-05-01T05:05:06.128Z,100798.47
2023-05-01T05:08:27.980Z,100799.75
2023-05-01T05:11:49.930Z,100806.19
2023-05-01T05:15:13.556Z,100797.91
2023-05-01T05:18:35.647Z,100806.88
2023-05-01T05:21:57.399Z,100809.25
2023-05-01T05:25:19.681Z,100801.03
2023-05-01T05:28:42.097Z,100788.41
2023-05-01T05:32:06.329Z,100798.91
2023-05-01T05:35:28.572Z,100800.16
2023-05-01T05:38:50.256Z,100810.38
2023-05-01T05:42:12.599Z,100803.84
2023-05-01T05:45:35.774Z,100795.75
2023-05-01T05:48:59.159Z,100808.38
2023-05-01T05:52:21.326Z,100801.69
2023-05-01T05:55:43.595Z,100800.28
2023-05-01T05:59:06.631Z,100813.34
2023-05-01T06:02:28.590Z,100807.34
2023-05-01T06:05:51.847Z,100804.44
2023-05-01T06:09:14.888Z,100811.38
2023-05-01T06:12:38.333Z,100811.91
2023-05-01T06:16:04.950Z,100817.00
2023-05-01T06:19:26.998Z,100824.97
2023-05-01T06:22:51.256Z,100819.44
2023-05-01T06:26:13.210Z,100826.34
2023-05-01T06:29:35.124Z,100833.56
2023-05-01T06:32:57.177Z,100827.19
2023-05-01T06:36:19.250Z,100829.53
2023-05-01T06:39:42.735Z,100821.28
2023-05-01T06:43:05.889Z,100823.31
2023-05-01T06:46:27.874Z,100813.53
2023-05-01T06:49:49.657Z,100822.41
2023-05-01T06:53:11.738Z,100817.88
2023-05-01T06:56:34.873Z,100824.94
2023-05-01T06:59:57.222Z,100819.94
2023-05-01T07:03:19.209Z,100826.50
2023-05-01T07:06:40.811Z,100828.25
2023-05-01T07:10:02.895Z,100820.34
2023-05-01T07:13:26.526Z,100815.34
2023-05-01T07:16:48.570Z,100818.28
2023-05-01T07:20:12.279Z,100821.81
2023-05-01T07:23:34.081Z,100815.88
2023-05-01T07:26:56.709Z,100809.25
2023-05-01T07:30:20.594Z,100817.78
2023-05-01T07:33:43.004Z,100807.13
2023-05-01T07:37:05.233Z,100805.81
2023-05-01T07:40:27.176Z,100813.66
2023-05-01T07:43:49.254Z,100807.72
2023-05-01T07:47:12.734Z,100805.88
2023-05-01T07:50:35.045Z,100788.25
2023-05-01T07:53:56.991Z,100762.09
2023-05-01T07:57:19.121Z,100806.69
2023-05-01T08:00:41.170Z,100797.50
2023-05-01T08:04:04.455Z,100813.97
2023-05-01T08:07:26.375Z,100803.38
2023-05-01T08:10:48.730Z,100803.94
2023-05-01T08:14:10.838Z,100811.97
2023-05-01T08:17:32.845Z,100809.16
2023-05-01T08:20:55.879Z,100805.47
2023-05-01T08:24:17.996Z,100805.47
2023-05-01T08:27:40.216Z,100815.50
2023-05-01T08:31:02.258Z,100808.53
2023-05-01T08:34:24.266Z,100817.63
2023-05-01T08:37:47.487Z,100811.34
2023-05-01T08:41:10.395Z,100811.78
2023-05-01T08:44:33.521Z,100815.25
2023-05-01T08:47:56.901Z,100800.16
2023-05-01T08:51:23.157Z,100815.81
2023-05-01T08:54:47.380Z,100808.56
2023-05-01T08:58:11.146Z,100803.31
2023-05-01T09:01:34.965Z,100807.22
2023-05-01T09:04:57.112Z,100815.34
2023-05-01T09:08:19.022Z,100816.38
2023-05-01T09:11:44.937Z,100818.00
2023-05-01T09:15:08.451Z,100815.97
2023-05-01T09:18:31.331Z,100824.69
2023-05-01T09:21:54.490Z,100818.75
2023-05-01T09:25:16.548Z,100813.06
2023-05-01T09:28:43.923Z,100818.44
2023-05-01T09:32:16.506Z,100815.53
2023-05-01T09:35:53.839Z,100800.44
2023-05-01T09:39:24.251Z,100814.78
2023-05-01T09:42:51.657Z,100811.16
2023-05-01T09:46:14.872Z,100809.78
2023-05-01T09:49:47.401Z,100804.03
2023-05-01T09:53:09.442Z,100818.19
2023-05-01T09:56:32.765Z,100815.63
2023-05-01T10:00:08.718Z,100808.94
2023-05-01T10:03:32.062Z,100810.97
2023-05-01T10:06:54.287Z,100810.22
2023-05-01T10:10:20.352Z,100810.28
2023-05-01T10:13:42.353Z,100818.50
2023-05-01T10:17:18.597Z,100813.22
2023-05-01T10:20:42.140Z,100811.56
2023-05-01T10:24:07.510Z,100800.06
2023-05-01T10:27:29.674Z,100802.31
2023-05-01T10:30:51.602Z,100808.41
2023-05-01T10:34:19.198Z,100810.72
2023-05-01T10:37:48.800Z,100805.94
2023-05-01T10:41:10.868Z,100817.59
2023-05-01T10:44:34.250Z,100792.72
2023-05-01T10:47:56.343Z,100807.63
2023-05-01T10:51:20.638Z,100802.75
2023-05-01T10:54:43.886Z,100807.97
2023-05-01T10:58:06.058Z,100802.22
2023-05-01T11:01:33.197Z,100801.63
2023-05-01T11:04:56.568Z,100806.94
2023-05-01T11:08:31.048Z,100810.03
2023-05-01T11:11:54.631Z,100803.31
2023-05-01T11:15:27.390Z,100802.56
2023-05-01T11:18:49.210Z,100802.91
2023-05-01T11:22:13.689Z,100805.06
2023-05-01T11:25:35.418Z,100807.03
2023-05-01T11:29:02.349Z,100805.25
2023-05-01T11:32:28.275Z,100802.13
2023-05-01T11:35:59.411Z,100804.00
2023-05-01T11:39:22.318Z,100805.84
2023-05-01T11:42:44.050Z,100805.00
2023-05-01T11:46:07.377Z,100798.25
2023-05-01T11:49:29.872Z,100793.84
2023-05-01T11:52:53.819Z,100803.22
2023-05-01T11:56:26.999Z,100792.66
2023-05-01T11:59:50.143Z,100788.16
2023-05-01T12:03:15.124Z,100793.66
2023-05-01T12:06:40.712Z,100782.06
2023-05-01T12:10:02.919Z,100795.28
2023-05-01T12:13:25.484Z,100782.72
2023-05-01T12:16:48.553Z,100784.00
2023-05-01T12:20:12.922Z,100784.81
2023-05-01T12:23:37.543Z,100784.03
2023-05-01T12:27:03.656Z,100782.69
2023-05-01T12:30:29.831Z,100774.88
2023-05-01T12:33:56.799Z,100752.22
2023-05-01T12:37:20.080Z,100777.41
2023-05-01T12:40:51.771Z,100777.47
2023-05-01T12:44:22.540Z,100778.03
2023-05-01T12:47:44.499Z,100763.59
2023-05-01T12:51:07.711Z,100777.19
2023-05-01T12:54:32.515Z,100760.31
2023-05-01T12:57:55.549Z,100767.84
2023-05-01T13:01:26.174Z,100762.69
2023-05-01T13:04:49.482Z,100762.69
2023-05-01T13:08:11.346Z,100735.38
2023-05-01T13:11:34.377Z,100768.59
2023-05-01T13:14:56.871Z,100761.50
2023-05-01T13:18:19.017Z,100763.19
2023-05-01T13:21:49.058Z,100751.41
2023-05-01T13:25:18.474Z,100759.53
2023-05-01T13:28:46.364Z,100748.84
2023-05-01T13:32:12.228Z,100757.50
2023-05-01T13:35:34.360Z,100751.72
2023-05-01T13:38:57.912Z,100754.84
2023-05-01T13:42:25.156Z,100714.13
2023-05-01T13:45:48.441Z,100748.09
2023-05-01T13:49:10.356Z,100742.56
2023-05-01T13:52:32.447Z,100740.84
2023-05-01T13:55:54.388Z,100744.75
2023-05-01T13:59:17.488Z,100732.94
2023-05-01T14:02:47.684Z,100714.69
2023-05-01T14:06:11.347Z,100699.19
2023-05-01T14:09:37.295Z,100722.66
2023-05-01T14:13:00.155Z,100724.63
2023-05-01T14:16:25.997Z,100722.53
2023-05-01T14:19:53.337Z,100722.59
2023-05-01T14:23:17.047Z,100718.97
2023-05-01T14:26:43.064Z,100713.09
2023-05-01T14:30:08.413Z,100710.88
2023-05-01T14:33:30.389Z,100710.34
2023-05-01T14:36:56.487Z,100707.75
2023-05-01T14:40:20.027Z,100705.06
2023-05-01T14:43:44.593Z,100704.38
2023-05-01T14:47:10.810Z,100702.88
2023-05-01T14:50:32.829Z,100697.31
2023-05-01T14:53:56.430Z,100693.09
2023-05-01T14:57:18.574Z,100692.03
2023-05-01T15:00:40.371Z,100690.09
2023-05-01T15:04:03.591Z,100690.59
2023-05-01T15:07:26.004Z,100678.72
2023-05-01T15:10:49.445Z,100690.25
2023-05-01T15:14:11.412Z,100714.81
2023-05-01T15:17:33.545Z,100719.22
2023-05-01T15:20:55.200Z,100720.50
2023-05-01T15:24:16.895Z,100736.31
2023-05-01T15:27:40.130Z,100729.69
2023-05-01T15:31:02.317Z,100732.31
2023-05-01T15:34:24.758Z,100741.28
2023-05-01T15:37:47.429Z,100735.00
2023-05-01T15:41:09.590Z,100731.94
2023-05-01T15:44:32.947Z,100735.59
2023-05-01T15:47:54.818Z,100739.59
2023-05-01T15:51:17.017Z,100749.38
2023-05-01T15:54:38.878Z,100749.88
2023-05-01T15:58:00.732Z,100752.94
2023-05-01T16:01:23.999Z,100755.78
2023-05-01T16:04:47.969Z,100752.69
2023-05-01T16:08:09.989Z,100752.97
2023-05-01T16:11:32.740Z,100750.75
2023-05-01T16:14:54.876Z,100753.72
2023-05-01T16:18:21.261Z,100751.41
2023-05-01T16:21:43.668Z,100747.78
2023-05-01T16:25:06.134Z,100726.94
2023-05-01T16:28:28.394Z,100749.66
2023-05-01T16:31:50.241Z,100748.88
2023-05-01T16:35:18.116Z,100742.28
2023-05-01T16:38:39.659Z,100740.63
2023-05-01T16:42:01.751Z,100742.56
2023-05-01T16:45:23.554Z,100740.16
2023-05-01T16:48:45.553Z,100745.50
2023-05-01T16:52:13.509Z,100742.28
2023-05-01T16:55:35.690Z,100747.13
2023-05-01T16:58:57.550Z,100747.44
2023-05-01T17:02:20.149Z,100732.78
2023-05-01T17:05:42.538Z,100749.50
2023-05-01T17:09:06.504Z,100736.59
2023-05-01T17:12:29.417Z,100736.59
2023-05-01T17:15:52.734Z,100729.16
2023-05-01T17:19:14.446Z,100731.16
2023-05-01T17:22:36.288Z,100722.63
2023-05-01T17:25:59.530Z,100718.91
2023-05-01T17:29:21.480Z,100745.66
2023-05-01T17:32:43.488Z,100740.75
2023-05-01T17:36:05.636Z,100746.97
2023-05-01T17:39:28.328Z,100749.78
2023-05-01T17:42:51.622Z,100747.28
2023-05-01T17:46:14.264Z,100749.94
2023-05-01T17:49:36.273Z,100751.00
2023-05-01T17:52:58.098Z,100749.97
2023-05-01T17:56:20.165Z,100757.06
2023-05-01T17:59:43.613Z,100750.22
2023-05-01T18:03:06.354Z,100761.59
2023-05-01T18:06:28.311Z,100733.13
2023-05-01T18:09:49.946Z,100759.75
2023-05-01T18:13:12.604Z,100764.16
2023-05-01T18:16:36.089Z,100770.41
2023-05-01T18:19:58.394Z,100776.00
2023-05-01T18:23:20.487Z,100779.63
2023-05-01T18:26:42.709Z,100781.63
2023-05-01T18:30:04.752Z,100772.44
2023-05-01T18:33:28.159Z,100772.13
2023-05-01T18:36:52.354Z,100774.09
2023-05-01T18:40:14.657Z,100750.31
2023-05-01T18:43:36.770Z,100773.63
2023-05-01T18:46:58.574Z,100768.50
2023-05-01T18:50:23.156Z,100756.72
2023-05-01T18:53:45.072Z,100771.22
2023-05-01T18:57:07.109Z,100768.69
2023-05-01T19:00:29.341Z,100760.91
2023-05-01T19:03:51.446Z,100766.03
2023-05-01T19:07:15.259Z,100754.81
2023-05-01T19:10:38.070Z,100756.72
2023-05-01T19:14:00.253Z,100754.16
2023-05-01T19:17:22.206Z,100760.38
2023-05-01T19:20:45.912Z,100743.16
2023-05-01T19:24:09.449Z,100741.59
2023-05-01T19:27:34.712Z,100742.31
2023-05-01T19:30:57.696Z,100746.69
2023-05-01T19:34:20.117Z,100742.44
2023-05-01T19:37:42.354Z,100750.22
2023-05-01T19:41:05.499Z,100744.25
2023-05-01T19:44:29.131Z,100739.94
2023-05-01T19:47:51.556Z,100732.13
2023-05-01T19:51:13.803Z,100732.19
2023-05-01T19:54:35.871Z,100715.75
2023-05-01T19:58:00.046Z,100706.38
2023-05-01T20:01:22.249Z,100701.16
2023-05-01T20:04:44.498Z,100703.78
2023-05-01T20:08:06.924Z,100707.22
2023-05-01T20:11:28.850Z,100700.41
2023-05-01T20:14:52.608Z,100697.81
2023-05-01T20:18:14.831Z,100690.97
2023-05-01T20:21:37.003Z,100690.09
2023-05-01T20:24:59.388Z,100655.19
2023-05-01T20:28:21.875Z,100684.06
2023-05-01T20:31:45.163Z,100686.66
2023-05-01T20:35:08.057Z,100681.50
2023-05-01T20:38:30.098Z,100684.09
2023-05-01T20:41:52.337Z,100678.91
2023-05-01T20:45:14.267Z,100685.00
2023-05-01T20:48:37.868Z,100681.56
2023-05-01T20:51:59.493Z,100673.75
2023-05-01T20:55:21.806Z,100668.56
2023-05-01T20:58:43.718Z,100659.94
2023-05-01T21:02:05.981Z,100635.91
2023-05-01T21:05:29.395Z,100648.69
2023-05-01T21:08:51.064Z,100652.13
2023-05-01T21:12:12.976Z,100646.19
2023-05-01T21:15:35.121Z,100643.66
2023-05-01T21:18:56.925Z,100635.06
2023-05-01T21:22:22.930Z,100638.56
2023-05-01T21:25:44.987Z,100604.25
2023-05-01T21:29:06.745Z,100628.19
2023-05-01T21:32:32.637Z,100625.50
2023-05-01T21:35:54.422Z,100624.69
2023-05-01T21:39:17.537Z,100620.47
2023-05-01T21:42:41.054Z,100625.69
2023-05-01T21:46:03.128Z,100614.56
2023-05-01T21:49:27.139Z,100617.94
2023-05-01T21:52:49.993Z,100607.63
2023-05-01T21:56:15.390Z,100613.63
2023-05-01T21:59:38.658Z,100613.56
2023-05-01T22:03:00.951Z,100598.03
2023-05-01T22:06:24.450Z,100609.16
2023-05-01T22:09:46.217Z,100596.22
2023-05-01T22:13:09.364Z,100600.47
2023-05-01T22:16:31.399Z,100603.88
2023-05-01T22:19:53.510Z,100596.94
2023-05-01T22:23:15.608Z,100594.25
2023-05-01T22:26:37.714Z,100588.25
2023-05-01T22:30:01.377Z,100587.41
2023-05-01T22:33:23.264Z,100587.50
2023-05-01T22:36:45.002Z,100594.53
2023-05-01T22:40:08.152Z,100598.06
2023-05-01T22:43:30.223Z,100589.44
2023-05-01T22:46:53.700Z,100586.84
2023-05-01T22:50:16.122Z,100584.34
2023-05-01T22:53:38.194Z,100575.59
2023-05-01T22:56:59.980Z,100574.69
2023-05-01T23:00:23.530Z,100570.31
2023-05-01T23:03:47.784Z,100563.31
2023-05-01T23:07:10.685Z,100565.03
2023-05-01T23:10:33.881Z,100561.56
2023-05-01T23:13:56.493Z,100554.56
2023-05-01T23:17:19.353Z,100549.38
2023-05-01T23:20:45.528Z,100551.78
2023-05-01T23:24:08.650Z,100543.97
2023-05-01T23:27:35.501Z,100513.28
2023-05-01T23:30:59.379Z,100534.22
2023-05-01T23:34:21.933Z,100534.09
2023-05-01T23:37:46.423Z,100533.97
2023-05-01T23:41:09.540Z,100517.50
2023-05-01T23:44:32.486Z,100521.84
2023-05-01T23:47:55.270Z,100521.00
2023-05-01T23:51:17.965Z,100520.13
2023-05-01T23:54:42.254Z,100520.13
2023-05-01T23:58:05.214Z,100509.78
